Time;durP1;ratioP1;P1;durP2;ratioP2;P2;SDS_P1;SDS_P2;PMS_P1;PMS_P2;Temp;Humidity;BMP_temperature;BMP_pressure;BME280_temperature;BME280_humidity;BME280_pressure;Samples;Min_cycle;Max_cycle;Signal;HPM_P1;HPM_P2
2022/06/25 00:02:21;;;;;;;0.63;0.50;;;;;;;15.44;100.00;96196.34;5035924;27;104419;-66
2022/06/25 00:05:29;;;;;;;0.50;0.50;;;;;;;15.41;100.00;96196.91;5035163;27;104340;-66
2022/06/25 00:07:56;;;;;;;0.93;0.57;;;;;;;15.40;100.00;96200.69;5016027;28;102041;-66
2022/06/25 00:10:24;;;;;;;0.60;0.50;;;;;;;15.40;100.00;96206.03;5036399;27;103563;-66
2022/06/25 00:12:51;;;;;;;0.83;0.53;;;;;;;15.41;100.00;96205.75;5035285;28;102647;-66
2022/06/25 00:15:23;;;;;;;1.07;0.50;;;;;;;15.40;100.00;96206.03;5036544;27;102177;-66
2022/06/25 00:17:50;;;;;;;0.60;0.60;;;;;;;15.35;100.00;96198.06;5034765;28;103647;-66
2022/06/25 00:20:41;;;;;;;1.10;0.40;;;;;;;15.34;100.00;96199.13;5035934;28;102611;-66
2022/06/25 00:23:08;;;;;;;1.00;0.40;;;;;;;15.36;100.00;96200.44;5035852;28;102127;-66
2022/06/25 00:25:36;;;;;;;3.57;0.70;;;;;;;15.40;100.00;96200.69;5032576;28;102727;-66
2022/06/25 00:28:05;;;;;;;1.20;0.60;;;;;;;15.48;100.00;96192.81;5032741;27;101868;-66
2022/06/25 00:30:32;;;;;;;0.67;0.60;;;;;;;15.48;100.00;96198.16;5033037;27;102799;-66
2022/06/25 00:33:00;;;;;;;0.93;0.53;;;;;;;15.45;100.00;96195.25;5032355;28;102560;-66
2022/06/25 00:35:29;;;;;;;0.87;0.63;;;;;;;15.40;100.00;96196.13;5033212;28;101812;-66
2022/06/25 00:37:56;;;;;;;1.13;0.60;;;;;;;15.31;100.00;96197.78;5032744;28;102429;-66
2022/06/25 00:40:23;;;;;;;0.93;0.60;;;;;;;15.45;100.00;96197.94;5030880;28;105672;-66
2022/06/25 00:42:51;;;;;;;0.50;0.50;;;;;;;15.38;100.00;96198.28;5032310;28;101916;-66
2022/06/25 00:45:21;;;;;;;4.13;0.43;;;;;;;15.35;100.00;96198.06;5035478;27;102870;-66
2022/06/25 00:47:48;;;;;;;1.37;0.60;;;;;;;15.38;100.00;96200.97;5031628;28;102002;-66
2022/06/25 00:50:17;;;;;;;0.53;0.53;;;;;;;15.46;100.00;96204.91;5032545;27;102335;-66
2022/06/25 00:52:53;;;;;;;1.30;0.50;;;;;;;15.41;100.00;96199.59;5030500;28;105517;-66
2022/06/25 00:55:23;;;;;;;0.70;0.53;;;;;;;15.44;100.00;96196.34;5031227;28;101958;-66
2022/06/25 00:57:51;;;;;;;1.30;0.60;;;;;;;15.43;100.00;96206.25;5032746;28;102825;-66
2022/06/25 01:00:20;;;;;;;0.50;0.50;;;;;;;15.42;100.00;96202.00;5030320;28;105579;-66
2022/06/25 01:02:48;;;;;;;1.03;0.60;;;;;;;15.41;100.00;96202.28;5031964;27;101904;-66
2022/06/25 01:05:17;;;;;;;4.63;0.70;;;;;;;15.39;100.00;96205.25;5031157;28;105946;-66
2022/06/25 01:07:47;;;;;;;0.40;0.40;;;;;;;15.42;100.00;96198.53;5034071;28;105830;-66
2022/06/25 01:10:15;;;;;;;0.83;0.67;;;;;;;15.42;100.00;96198.53;5030947;28;105986;-66
2022/06/25 01:12:43;;;;;;;0.50;0.50;;;;;;;15.41;100.00;96196.91;5029637;28;105872;-66
2022/06/25 01:15:28;;;;;;;1.67;0.50;;;;;;;15.41;100.00;96197.72;5031130;28;101699;-66
2022/06/25 01:17:56;;;;;;;0.63;0.50;;;;;;;15.46;100.00;96200.34;5030844;28;105216;-66
2022/06/25 01:20:27;;;;;;;0.87;0.60;;;;;;;15.41;100.00;96202.28;5030276;28;105252;-66
2022/06/25 01:22:56;;;;;;;1.83;0.60;;;;;;;15.41;100.00;96205.75;5030582;28;102018;-66
2022/06/25 01:25:34;;;;;;;1.07;0.40;;;;;;;15.45;100.00;96197.94;5030651;28;103928;-66
2022/06/25 01:28:01;;;;;;;0.60;0.40;;;;;;;15.36;100.00;96199.69;5034930;28;102550;-66
2022/06/25 01:30:29;;;;;;;0.67;0.60;;;;;;;15.38;100.00;96200.19;5030698;28;105135;-66
2022/06/25 01:32:57;;;;;;;1.50;0.60;;;;;;;15.43;100.00;96200.91;5008492;28;105613;-66
2022/06/25 01:35:28;;;;;;;1.00;0.60;;;;;;;15.50;100.00;96195.22;5011422;28;102055;-66
2022/06/25 01:37:57;;;;;;;2.27;0.67;;;;;;;15.50;100.00;96196.03;5030812;28;105431;-66
2022/06/25 01:40:24;;;;;;;2.47;0.57;;;;;;;15.50;100.00;96195.22;5030977;28;102279;-66
2022/06/25 01:43:00;;;;;;;1.53;0.40;;;;;;;15.47;100.00;96195.81;5030703;28;101923;-66
2022/06/25 01:45:28;;;;;;;0.73;0.50;;;;;;;15.52;100.00;96191.16;5030312;28;106215;-66
2022/06/25 01:47:55;;;;;;;0.83;0.50;;;;;;;15.53;100.00;96189.28;5030045;28;105764;-66
2022/06/25 01:50:22;;;;;;;1.50;0.53;;;;;;;15.50;100.00;96185.31;5034957;28;101849;-66
2022/06/25 01:52:50;;;;;;;2.20;0.50;;;;;;;15.47;100.00;96177.81;5030727;27;102544;-66
2022/06/25 01:56:03;;;;;;;0.83;0.50;;;;;;;15.44;100.00;96185.63;5030102;28;101999;-66
2022/06/25 01:58:31;;;;;;;0.50;0.47;;;;;;;15.37;100.00;96185.19;5030325;28;105237;-66
2022/06/25 02:01:00;;;;;;;0.43;0.43;;;;;;;15.45;100.00;96179.19;5029421;28;105394;-66
2022/06/25 02:03:27;;;;;;;0.90;0.50;;;;;;;15.48;100.00;96171.38;5031188;28;101882;-66
2022/06/25 02:06:00;;;;;;;0.50;0.50;;;;;;;15.41;100.00;96176.28;5029997;28;105497;-66
2022/06/25 02:08:31;;;;;;;0.70;0.60;;;;;;;15.46;100.00;96183.47;5029649;28;105600;-66
2022/06/25 02:10:59;;;;;;;0.57;0.57;;;;;;;15.45;100.00;96182.69;5031341;28;101947;-66
2022/06/25 02:13:27;;;;;;;0.50;0.50;;;;;;;15.45;100.00;96181.88;5032523;28;105357;-66
2022/06/25 02:16:22;;;;;;;0.40;0.40;;;;;;;15.41;100.00;96191.56;5013080;28;101952;-66
2022/06/25 02:18:51;;;;;;;0.67;0.57;;;;;;;15.44;100.00;96191.81;5029931;28;105294;-66
2022/06/25 02:21:19;;;;;;;0.77;0.57;;;;;;;15.47;100.00;96185.09;5027063;28;105459;-66
2022/06/25 02:23:46;;;;;;;0.50;0.50;;;;;;;15.43;100.00;96189.41;5029447;28;101971;-66
2022/06/25 02:27:03;;;;;;;0.60;0.60;;;;;;;15.49;100.00;96182.91;5031243;28;102410;-66
2022/06/25 02:29:32;;;;;;;0.60;0.60;;;;;;;15.52;100.00;96190.34;5029136;28;105417;-66
2022/06/25 02:32:02;;;;;;;0.80;0.60;;;;;;;15.47;100.00;96190.44;5009743;28;102008;-66
2022/06/25 02:34:29;;;;;;;0.50;0.50;;;;;;;15.46;100.00;96186.13;5029639;28;103453;-66
2022/06/25 02:36:57;;;;;;;0.60;0.60;;;;;;;15.48;100.00;96192.03;5032711;28;105465;-66
2022/06/25 02:39:29;;;;;;;1.43;0.70;;;;;;;15.54;100.00;96190.88;5029385;28;104808;-66
2022/06/25 02:41:56;;;;;;;2.20;0.77;;;;;;;15.51;100.00;96196.81;5028971;28;105504;-66
2022/06/25 02:44:25;;;;;;;0.80;0.50;;;;;;;15.46;100.00;96199.53;5028775;27;102010;-66
2022/06/25 02:46:57;;;;;;;1.17;0.50;;;;;;;15.48;100.00;96189.34;5029891;28;105013;-66
2022/06/25 02:49:36;;;;;;;1.27;0.70;;;;;;;15.51;100.00;96189.56;5028655;28;103706;-66
2022/06/25 02:52:06;;;;;;;0.60;0.60;;;;;;;15.48;100.00;96186.66;5029696;28;101966;-66
2022/06/25 02:54:48;;;;;;;2.47;0.70;;;;;;;15.46;100.00;96197.66;5029234;28;104689;-66
2022/06/25 03:00:01;;;;;;;1.20;0.63;;;;;;;15.53;100.00;96195.44;5033055;28;101917;-66
2022/06/25 03:02:29;;;;;;;0.60;0.60;;;;;;;15.45;100.00;96193.41;5028170;28;106129;-66
2022/06/25 03:05:00;;;;;;;2.60;0.67;;;;;;;15.48;100.00;96192.03;5029426;28;101981;-66
2022/06/25 03:07:27;;;;;;;2.40;0.90;;;;;;;15.53;100.00;96190.06;5029205;28;105122;-66
2022/06/25 03:09:55;;;;;;;0.63;0.60;;;;;;;15.51;100.00;96197.63;5028673;28;104960;-66
2022/06/25 03:12:22;;;;;;;0.60;0.60;;;;;;;15.51;100.00;96202.16;5028442;28;101928;-66
2022/06/25 03:14:59;;;;;;;1.80;0.80;;;;;;;15.55;100.00;96203.19;5029251;28;103534;-66
2022/06/25 03:17:27;;;;;;;0.70;0.70;;;;;;;15.52;100.00;96203.75;5028364;28;105479;-66
2022/06/25 03:20:16;;;;;;;1.10;0.60;;;;;;;15.50;100.00;96209.41;5028967;28;101952;-66
2022/06/25 03:22:49;;;;;;;0.73;0.70;;;;;;;15.49;100.00;96207.03;5031430;28;104760;-66
2022/06/25 03:25:31;;;;;;;1.67;0.60;;;;;;;15.40;100.00;96214.06;5029230;28;102015;-66
2022/06/25 03:28:04;;;;;;;1.20;0.50;;;;;;;15.47;100.00;96207.28;5009195;28;105215;-66
2022/06/25 03:30:33;;;;;;;1.63;0.80;;;;;;;15.46;100.00;96210.25;5008369;28;105669;-66
2022/06/25 03:33:01;;;;;;;0.70;0.70;;;;;;;15.49;100.00;96215.06;5028356;28;102050;-65
2022/06/25 03:36:17;;;;;;;1.37;0.60;;;;;;;15.45;100.00;96224.75;5028947;28;104480;-66
2022/06/25 03:38:45;;;;;;;1.13;0.70;;;;;;;15.45;100.00;96220.19;5028268;28;105039;-66
2022/06/25 03:44:11;;;;;;;1.60;0.53;;;;;;;15.50;100.00;96227.38;5031569;28;104968;-66
2022/06/25 03:50:04;;;;;;;1.03;0.50;;;;;;;15.61;100.00;96220.81;5028806;28;104578;-66
2022/06/25 03:52:33;;;;;;;1.10;0.60;;;;;;;15.61;100.00;96221.63;5028191;28;105633;-66
2022/06/25 03:55:07;;;;;;;0.60;0.60;;;;;;;15.56;100.00;96216.31;5028533;28;102900;-65
2022/06/25 03:57:35;;;;;;;0.60;0.60;;;;;;;15.64;100.00;96225.63;5030497;27;105035;-65
2022/06/25 04:00:14;;;;;;;0.53;0.53;;;;;;;15.58;100.00;96232.13;5031481;28;105530;-66
2022/06/25 04:02:52;;;;;;;0.60;0.60;;;;;;;15.66;100.00;96221.56;5031700;28;103030;-66
2022/06/25 04:05:30;;;;;;;2.00;0.60;;;;;;;15.62;100.00;96228.56;5030536;27;102192;-66
2022/06/25 04:08:19;;;;;;;1.13;0.67;;;;;;;15.66;100.00;96240.34;5034985;28;103905;-66
2022/06/25 04:10:48;;;;;;;0.37;0.37;;;;;;;15.71;100.00;96239.47;5032106;28;104860;-66
2022/06/25 04:13:17;;;;;;;0.50;0.50;;;;;;;15.70;100.00;96237.88;5030894;28;104427;-66
2022/06/25 04:16:15;;;;;;;0.63;0.60;;;;;;;15.76;100.00;96244.78;5031402;28;102341;-65
2022/06/25 04:18:58;;;;;;;0.53;0.53;;;;;;;15.90;100.00;96243.78;5031793;28;104125;-66
2022/06/25 04:21:32;;;;;;;0.60;0.60;;;;;;;15.95;100.00;96240.25;5031226;28;105494;-66
2022/06/25 04:24:01;;;;;;;0.50;0.50;;;;;;;15.95;100.00;96238.38;5031591;28;102106;-66
2022/06/25 04:29:52;;;;;;;0.50;0.50;;;;;;;16.04;100.00;96244.69;5031139;28;105696;-66
2022/06/25 04:32:23;;;;;;;0.77;0.60;;;;;;;16.04;100.00;96249.25;5035237;28;101901;-66
2022/06/25 04:35:36;;;;;;;0.50;0.50;;;;;;;16.13;100.00;96242.16;5030883;28;105132;-66
2022/06/25 04:38:17;;;;;;;1.17;0.70;;;;;;;16.17;100.00;96256.59;5031561;28;101986;-66
2022/06/25 04:40:46;;;;;;;3.10;0.93;;;;;;;16.11;100.00;96249.69;5031447;28;104858;-66
2022/06/25 04:43:14;;;;;;;3.27;0.70;;;;;;;16.14;100.00;96246.44;5032013;27;103155;-65
2022/06/25 04:45:45;;;;;;;2.13;0.70;;;;;;;16.32;100.00;96251.03;5031238;28;102053;-66
2022/06/25 04:48:27;;;;;;;1.40;1.30;;;;;;;16.23;100.00;96260.78;5031193;28;104948;-66
2022/06/25 04:51:13;;;;;;;0.50;0.50;;;;;;;16.26;100.00;96254.88;5030976;28;105413;-66
2022/06/25 04:56:38;;;;;;;1.77;0.70;;;;;;;16.52;100.00;96251.56;5051291;27;101559;-66
2022/06/25 04:59:06;;;;;;;0.83;0.50;;;;;;;16.46;100.00;96257.31;5044730;27;105179;-66
2022/06/25 05:01:54;;;;;;;1.63;0.67;;;;;;;16.31;100.00;96258.28;5046771;27;101983;-66
2022/06/25 05:04:33;;;;;;;2.40;0.60;;;;;;;16.56;100.00;96263.31;5045601;27;104833;-65
2022/06/25 05:07:00;;;;;;;0.80;0.77;;;;;;;16.57;100.00;96266.81;5045001;27;105286;-65
2022/06/25 05:09:27;;;;;;;0.80;0.50;;;;;;;16.68;100.00;96270.94;5046791;27;102011;-65
2022/06/25 05:11:57;;;;;;;0.77;0.60;;;;;;;16.77;100.00;96272.69;5045832;27;104783;-65
2022/06/25 05:14:25;;;;;;;0.50;0.43;;;;;;;16.70;100.00;96274.13;5044791;27;105656;-65
2022/06/25 05:16:53;;;;;;;0.40;0.40;;;;;;;16.67;100.00;96275.50;5049310;27;102260;-65
2022/06/25 05:19:35;;;;;;;0.80;0.60;;;;;;;16.81;100.00;96275.56;5044815;27;105638;-65
2022/06/25 05:22:02;;;;;;;1.17;0.40;;;;;;;16.96;100.00;96275.34;5045729;27;101814;-66
2022/06/25 05:24:29;;;;;;;0.50;0.50;;;;;;;16.96;100.00;96275.34;5045192;27;105252;-64
2022/06/25 05:26:58;;;;;;;0.50;0.50;;;;;;;16.85;100.00;96285.44;5045056;27;105434;-65
2022/06/25 05:29:25;;;;;;;1.33;0.40;;;;;;;17.01;100.00;96280.63;5045565;27;101917;-65
2022/06/25 05:31:53;;;;;;;0.60;0.60;;;;;;;17.06;100.00;96286.72;5045689;27;104300;-65
2022/06/25 05:34:21;;;;;;;0.57;0.53;;;;;;;17.36;100.00;96277.34;5044346;27;105664;-65
2022/06/25 05:36:48;;;;;;;0.43;0.43;;;;;;;17.38;100.00;96280.56;5046970;27;101844;-65
2022/06/25 05:39:15;;;;;;;0.50;0.50;;;;;;;17.27;100.00;96287.97;5048281;27;105668;-66
2022/06/25 05:41:43;;;;;;;1.27;0.40;;;;;;;17.08;100.00;96291.81;5046650;27;101920;-64
2022/06/25 05:44:12;;;;;;;0.60;0.60;;;;;;;17.27;100.00;96292.56;5045200;27;103707;-64
2022/06/25 05:46:40;;;;;;;0.53;0.53;;;;;;;17.08;100.00;96287.25;5044693;27;105134;-64
2022/06/25 05:49:18;;;;;;;0.97;0.70;;;;;;;17.20;100.00;96289.44;5044906;27;101938;-64
2022/06/25 05:51:45;;;;;;;0.70;0.70;;;;;;;17.33;100.00;96286.03;5046874;27;102375;-64
2022/06/25 05:54:12;;;;;;;1.07;0.60;;;;;;;17.35;100.00;96291.88;5045242;27;101871;-65
2022/06/25 05:56:41;;;;;;;1.00;0.60;;;;;;;17.24;100.00;96290.47;5046772;27;101723;-64
2022/06/25 05:59:08;;;;;;;0.97;0.60;;;;;;;17.44;100.00;96287.47;5046487;27;102599;-64
2022/06/25 06:01:37;;;;;;;0.63;0.50;;;;;;;17.68;100.00;96296.16;5049409;27;102814;-64
2022/06/25 06:04:04;;;;;;;0.50;0.50;;;;;;;17.52;100.00;96289.47;5046013;27;102288;-64
2022/06/25 06:06:51;;;;;;;0.60;0.60;;;;;;;17.60;100.00;96291.47;5040311;27;102920;-64
2022/06/25 06:09:18;;;;;;;0.73;0.70;;;;;;;17.78;100.00;96299.47;5032956;28;101761;-64
2022/06/25 06:11:45;;;;;;;0.63;0.63;;;;;;;17.64;100.00;96300.53;5031476;28;105503;-64
2022/06/25 06:14:12;;;;;;;1.20;0.70;;;;;;;17.68;100.00;96317.69;5031708;27;102749;-64
2022/06/25 06:16:41;;;;;;;0.63;0.53;;;;;;;17.60;100.00;96310.31;5032276;27;101824;-65
2022/06/25 06:19:08;;;;;;;1.10;0.63;;;;;;;17.77;100.00;96305.94;5032597;27;102675;-65
2022/06/25 06:21:36;;;;;;;1.33;0.50;;;;;;;18.02;100.00;96312.72;5030293;28;105751;-64
2022/06/25 06:24:03;;;;;;;0.60;0.60;;;;;;;18.12;100.00;96315.22;5036213;28;101807;-64
2022/06/25 06:26:43;;;;;;;0.90;0.50;;;;;;;18.08;100.00;96311.53;5031613;28;102679;-65
2022/06/25 06:29:11;;;;;;;0.70;0.60;;;;;;;18.26;100.00;96319.50;5032556;28;101878;-65
2022/06/25 06:31:38;;;;;;;0.40;0.40;;;;;;;18.46;100.00;96307.53;5030990;28;104060;-65
2022/06/25 06:34:07;;;;;;;1.13;0.50;;;;;;;18.62;100.00;96303.44;5031735;27;103004;-65
2022/06/25 06:39:56;;;;;;;0.70;0.40;;;;;;;18.26;100.00;96308.72;5030867;28;103586;-64
2022/06/25 06:42:24;;;;;;;0.87;0.50;;;;;;;18.38;100.00;96310.97;5029985;28;104344;-64
2022/06/25 06:45:27;;;;;;;1.60;0.50;;;;;;;18.46;100.00;96310.25;5032334;28;101886;-64
2022/06/25 06:47:55;;;;;;;0.50;0.50;;;;;;;18.55;100.00;96303.88;5033534;28;105475;-64
2022/06/25 06:50:24;;;;;;;2.23;0.60;;;;;;;18.65;100.00;96306.31;5032156;27;102037;-64
2022/06/25 06:52:51;;;;;;;2.67;0.60;;;;;;;18.63;100.00;96300.44;5032089;28;102749;-64
2022/06/25 06:55:18;;;;;;;0.70;0.40;;;;;;;18.55;100.00;96308.44;5031076;27;102092;-64
2022/06/25 06:57:45;;;;;;;0.50;0.50;;;;;;;18.94;100.00;96308.63;5030320;28;102010;-64
2022/06/25 07:00:12;;;;;;;0.40;0.40;;;;;;;19.04;100.00;96308.41;5031548;27;102329;-64
2022/06/25 07:02:40;;;;;;;0.57;0.40;;;;;;;19.06;100.00;96298.09;5031528;28;102554;-64
2022/06/25 07:08:30;;;;;;;0.90;0.47;;;;;;;19.05;100.00;96300.00;5027246;28;105693;-64
2022/06/25 07:10:57;;;;;;;0.70;0.33;;;;;;;19.35;100.00;96309.31;5032795;28;103431;-64
2022/06/25 07:13:25;;;;;;;1.03;0.40;;;;;;;19.27;100.00;96301.94;5031556;27;102310;-64
2022/06/25 07:15:53;;;;;;;1.13;0.40;;;;;;;19.31;100.00;96297.53;5031077;28;103232;-64
2022/06/25 07:18:46;;;;;;;0.40;0.40;;;;;;;19.26;100.00;96301.16;5029162;28;102118;-64
2022/06/25 07:21:13;;;;;;;1.00;0.50;;;;;;;19.33;100.00;96298.81;5030074;28;105665;-64
2022/06/25 07:23:42;;;;;;;0.40;0.40;;;;;;;19.65;100.00;96289.63;5029832;28;105372;-64
2022/06/25 07:26:24;;;;;;;0.70;0.37;;;;;;;19.68;100.00;96286.34;5029837;28;102161;-64
2022/06/25 07:28:53;;;;;;;0.47;0.40;;;;;;;20.06;100.00;96285.53;5031378;28;103952;-65
2022/06/25 07:31:20;;;;;;;0.70;0.40;;;;;;;20.49;100.00;96283.00;5033018;28;104167;-65
2022/06/25 07:33:47;;;;;;;0.37;0.30;;;;;;;20.38;100.00;96274.38;5031573;27;102250;-65
2022/06/25 07:36:16;;;;;;;0.40;0.40;;;;;;;20.55;100.00;96274.41;5030918;27;102560;-65
2022/06/25 07:38:44;;;;;;;0.77;0.37;;;;;;;20.44;100.00;96266.94;5031330;28;103409;-65
2022/06/25 07:41:12;;;;;;;0.40;0.40;;;;;;;20.70;100.00;96273.19;5031501;28;103042;-65
2022/06/25 07:43:39;;;;;;;0.73;0.50;;;;;;;20.77;100.00;96276.97;5028894;28;103899;-65
2022/06/25 07:46:19;;;;;;;1.07;0.40;;;;;;;20.94;100.00;96271.63;5031520;28;101880;-64
2022/06/25 07:48:46;;;;;;;0.50;0.50;;;;;;;20.76;100.00;96280.03;5029749;28;105164;-65
2022/06/25 07:54:00;;;;;;;0.37;0.37;;;;;;;20.62;100.00;96271.25;5014755;28;101681;-65
2022/06/25 07:56:30;;;;;;;0.47;0.47;;;;;;;21.01;100.00;96277.34;5008828;28;105787;-65
2022/06/25 07:58:58;;;;;;;0.50;0.47;;;;;;;21.00;100.00;96274.97;5017878;28;101786;-65
2022/06/25 08:01:25;;;;;;;0.87;0.40;;;;;;;21.16;100.00;96267.94;5029799;28;105398;-65
2022/06/25 08:03:52;;;;;;;0.77;0.60;;;;;;;21.17;100.00;96277.66;5028820;28;103875;-65
2022/06/25 08:06:20;;;;;;;1.27;0.67;;;;;;;21.25;100.00;96271.44;5029868;28;101956;-65
2022/06/25 08:08:47;;;;;;;0.60;0.33;;;;;;;21.06;100.00;96266.38;5029213;28;104059;-65
2022/06/25 08:11:16;;;;;;;0.30;0.30;;;;;;;21.20;100.00;96268.91;5030389;27;102862;-65
2022/06/25 08:13:43;;;;;;;0.40;0.40;;;;;;;21.08;100.00;96276.88;5029380;28;102024;-65
2022/06/25 08:16:25;;;;;;;0.40;0.30;;;;;;;21.40;100.00;96270.94;5032271;28;105688;-65
2022/06/25 08:19:08;;;;;;;1.80;0.70;;;;;;;21.39;100.00;96280.16;5029158;28;101958;-65
2022/06/25 08:21:35;;;;;;;0.50;0.50;;;;;;;21.17;100.00;96274.94;5029359;28;103758;-65
2022/06/25 08:24:02;;;;;;;0.57;0.50;;;;;;;21.70;100.00;96280.78;5029643;28;102687;-65
2022/06/25 08:26:36;;;;;;;0.40;0.40;;;;;;;22.01;100.00;96278.59;5030920;27;101823;-65
2022/06/25 08:29:04;;;;;;;0.40;0.40;;;;;;;22.05;100.00;96279.50;5028881;28;105589;-65
2022/06/25 08:31:31;;;;;;;1.60;0.50;;;;;;;22.40;100.00;96280.94;5030045;28;102891;-65
2022/06/25 08:33:58;;;;;;;0.77;0.40;;;;;;;22.65;100.00;96278.09;5028989;28;102054;-65
2022/06/25 08:36:30;;;;;;;0.60;0.60;;;;;;;21.91;100.00;96278.94;5030558;28;101881;-65
2022/06/25 08:38:57;;;;;;;1.93;0.50;;;;;;;20.98;100.00;96271.78;5033551;27;102596;-65
2022/06/25 08:41:25;;;;;;;0.47;0.40;;;;;;;20.88;100.00;96277.47;5028947;28;105116;-64
2022/06/25 08:43:53;;;;;;;0.40;0.40;;;;;;;20.54;100.00;96277.44;5028325;28;105440;-64
2022/06/25 08:46:32;;;;;;;1.07;0.50;;;;;;;20.54;100.00;96274.75;5030365;27;101897;-65
2022/06/25 08:49:34;;;;;;;0.30;0.30;;;;;;;21.46;100.00;96277.75;5030490;28;103988;-64
2022/06/25 08:52:04;;;;;;;0.40;0.40;;;;;;;22.22;100.00;96269.41;5028011;28;104523;-65
2022/06/25 08:54:34;;;;;;;0.73;0.50;;;;;;;22.68;100.00;96268.53;5029712;27;101962;-65
2022/06/25 08:57:01;;;;;;;0.47;0.40;;;;;;;22.48;100.00;96267.38;5028497;28;104829;-65
2022/06/25 08:59:31;;;;;;;0.37;0.37;;;;;;;22.05;100.00;96263.25;5011788;28;105303;-65
2022/06/25 09:01:59;;;;;;;0.50;0.30;;;;;;;22.98;100.00;96261.91;5032037;28;102000;-65
2022/06/25 09:04:49;;;;;;;0.47;0.47;;;;;;;21.99;100.00;96264.56;5028222;28;105006;-65
2022/06/25 09:07:20;;;;;;;0.50;0.30;;;;;;;22.40;100.00;96264.69;5028750;28;101890;-65
2022/06/25 09:09:49;;;;;;;0.30;0.30;;;;;;;22.15;100.00;96258.28;5028605;28;105058;-65
2022/06/25 09:12:17;;;;;;;2.00;0.43;;;;;;;22.38;100.00;96253.38;5027751;28;105216;-65
2022/06/25 09:14:47;;;;;;;0.40;0.40;;;;;;;21.79;100.00;96255.25;5028825;28;101926;-65
2022/06/25 09:17:16;;;;;;;0.70;0.50;;;;;;;21.86;100.00;96255.53;5029975;27;102294;-65
2022/06/25 09:19:45;;;;;;;0.50;0.50;;;;;;;22.24;100.00;96250.13;5029412;28;102645;-65
2022/06/25 09:22:14;;;;;;;0.40;0.40;;;;;;;22.19;100.00;96253.78;5031803;28;101965;-65
2022/06/25 09:24:46;;;;;;;0.40;0.40;;;;;;;22.39;100.00;96261.19;5028031;28;104372;-65
2022/06/25 09:27:13;;;;;;;0.40;0.40;;;;;;;22.77;100.00;96247.56;5028459;28;101945;-65
2022/06/25 09:29:42;;;;;;;0.30;0.30;;;;;;;22.74;100.00;96250.94;5028622;28;104855;-65
2022/06/25 09:32:13;;;;;;;0.30;0.30;;;;;;;22.75;100.00;96247.91;5028894;28;103165;-65
2022/06/25 09:35:08;;;;;;;0.63;0.33;;;;;;;22.80;100.00;96246.91;5030138;27;101753;-65
2022/06/25 09:37:35;;;;;;;0.30;0.30;;;;;;;22.10;100.00;96253.06;5029595;27;102311;-65
2022/06/25 09:40:04;;;;;;;0.97;0.50;;;;;;;22.80;100.00;96246.91;5029211;28;103189;-66
2022/06/25 09:42:33;;;;;;;0.50;0.50;;;;;;;23.46;100.00;96238.50;5030322;27;102053;-66
2022/06/25 09:45:08;;;;;;;0.50;0.50;;;;;;;23.78;100.00;96232.25;5036116;28;102634;-66
2022/06/25 09:47:38;;;;;;;0.40;0.40;;;;;;;24.42;100.00;96237.81;5033103;28;101900;-66
2022/06/25 09:50:18;;;;;;;0.50;0.50;;;;;;;24.18;100.00;96238.63;5033151;28;103445;-66
2022/06/25 09:52:53;;;;;;;1.43;0.50;;;;;;;24.44;100.00;96235.53;5031291;28;105371;-66
2022/06/25 09:55:22;;;;;;;0.40;0.40;;;;;;;24.78;100.00;96232.34;5032158;28;102099;-66
2022/06/25 09:57:50;;;;;;;0.40;0.40;;;;;;;24.30;100.00;96229.69;5032903;27;105222;-66
2022/06/25 10:00:19;;;;;;;0.43;0.30;;;;;;;24.03;100.00;96225.72;5032371;27;102961;-66
2022/06/25 10:02:49;;;;;;;0.97;0.40;;;;;;;24.59;100.00;96232.16;5012942;28;101912;-66
2022/06/25 10:05:36;;;;;;;0.83;0.63;;;;;;;24.89;100.00;96231.50;5030069;28;102266;-66
2022/06/25 10:08:07;;;;;;;0.50;0.40;;;;;;;23.89;100.00;96222.56;5035826;27;102596;-66
2022/06/25 10:10:38;;;;;;;0.70;0.40;;;;;;;23.68;100.00;96218.28;5032282;27;104025;-66
2022/06/25 10:13:06;;;;;;;0.40;0.30;;;;;;;24.62;100.00;96218.66;5030945;28;103859;-66
2022/06/25 10:16:23;;;;;;;0.47;0.43;;;;;;;24.91;100.00;96217.56;5032658;28;101932;-66
2022/06/25 10:18:54;;;;;;;0.23;0.23;;;;;;;26.07;100.00;96216.88;5032599;28;102628;-66
2022/06/25 10:21:24;;;;;;;0.40;0.40;;;;;;;25.86;100.00;96210.84;5031665;28;103144;-66
2022/06/25 10:23:56;;;;;;;0.40;0.40;;;;;;;25.26;99.53;96208.50;5032989;27;101691;-66
2022/06/25 10:26:47;;;;;;;0.43;0.40;;;;;;;25.79;100.00;96207.16;5032657;28;102381;-66
2022/06/25 10:29:27;;;;;;;0.27;0.23;;;;;;;25.74;99.02;96207.41;5032054;28;102631;-66
2022/06/25 10:32:16;;;;;;;0.50;0.40;;;;;;;25.83;100.00;96202.59;5029300;28;101887;-66
2022/06/25 10:35:02;;;;;;;1.43;0.30;;;;;;;25.80;100.00;96200.56;5031839;27;102515;-66
2022/06/25 10:37:29;;;;;;;0.40;0.40;;;;;;;26.15;99.93;96198.75;5032722;27;101688;-66
2022/06/25 10:39:57;;;;;;;0.30;0.30;;;;;;;26.39;100.00;96190.34;5032236;27;102304;-66
2022/06/25 10:45:52;;;;;;;1.97;0.40;;;;;;;25.73;100.00;96195.72;5030873;28;101847;-66
2022/06/25 10:48:22;;;;;;;1.40;0.30;;;;;;;25.40;100.00;96186.31;5029972;28;105613;-66
2022/06/25 10:50:55;;;;;;;0.83;0.40;;;;;;;25.86;100.00;96188.25;5029985;28;105418;-66
2022/06/25 10:53:26;;;;;;;0.40;0.40;;;;;;;26.39;100.00;96179.44;5030356;28;101908;-66
2022/06/25 10:56:25;;;;;;;1.03;0.40;;;;;;;26.82;92.13;96181.97;5033006;28;105253;-66
2022/06/25 10:58:55;;;;;;;2.10;2.00;;;;;;;27.15;94.45;96174.84;5030988;28;102108;-66
2022/06/25 11:01:29;;;;;;;0.30;0.30;;;;;;;27.53;84.05;96179.47;5030263;28;105420;-66
2022/06/25 11:03:59;;;;;;;0.70;0.40;;;;;;;26.16;79.38;96184.75;5031855;27;102801;-66
2022/06/25 11:06:40;;;;;;;0.20;0.20;;;;;;;25.33;100.00;96176.00;5030302;28;101870;-66
2022/06/25 11:09:16;;;;;;;0.40;0.40;;;;;;;25.08;91.80;96176.47;5030511;28;103649;-66
2022/06/25 11:11:47;;;;;;;0.57;0.30;;;;;;;24.21;99.25;96174.66;5030715;28;104235;-66
2022/06/25 11:14:17;;;;;;;0.43;0.30;;;;;;;24.71;96.64;96172.28;5032192;28;101868;-66
2022/06/25 11:20:14;;;;;;;0.30;0.30;;;;;;;26.18;82.42;96170.75;5034847;27;103777;-66
2022/06/25 11:22:50;;;;;;;0.27;0.27;;;;;;;26.93;83.05;96163.88;5029818;28;105318;-66
2022/06/25 11:28:52;;;;;;;1.13;0.27;;;;;;;25.92;100.00;96165.88;5031751;27;101718;-66
2022/06/25 11:31:21;;;;;;;0.53;0.40;;;;;;;26.87;100.00;96162.56;5031700;27;102477;-66
2022/06/25 11:33:49;;;;;;;0.90;0.23;;;;;;;27.34;86.65;96160.38;5030716;28;102640;-66
2022/06/25 11:36:17;;;;;;;0.30;0.23;;;;;;;27.24;84.09;96158.28;5031213;28;101843;-66
2022/06/25 11:38:52;;;;;;;1.33;0.40;;;;;;;27.04;100.00;96145.75;5031484;28;102576;-66
2022/06/25 11:41:23;;;;;;;0.87;0.30;;;;;;;27.09;86.85;96150.94;5033121;28;105707;-66
2022/06/25 11:43:50;;;;;;;0.47;0.30;;;;;;;26.45;75.91;96157.00;5031228;28;104469;-66
2022/06/25 11:49:41;;;;;;;0.20;0.20;;;;;;;27.23;85.69;96151.22;5031428;27;102175;-66
2022/06/25 11:52:10;;;;;;;0.37;0.30;;;;;;;27.25;65.01;96154.38;5030919;27;102837;-66
2022/06/25 11:54:41;;;;;;;0.30;0.30;;;;;;;26.42;70.54;96152.22;5029737;28;102586;-66
2022/06/25 11:57:10;;;;;;;0.33;0.33;;;;;;;27.19;77.87;96142.19;5029683;28;101921;-66
2022/06/25 11:59:39;;;;;;;0.30;0.30;;;;;;;28.15;74.43;96144.22;5030934;28;102580;-66
2022/06/25 12:02:08;;;;;;;0.40;0.40;;;;;;;27.93;75.14;96144.25;5030182;28;105030;-66
2022/06/25 12:04:48;;;;;;;0.40;0.40;;;;;;;28.23;63.43;96145.13;5033635;27;101907;-66
2022/06/25 12:07:20;;;;;;;0.30;0.30;;;;;;;27.97;66.74;96137.72;5029059;28;105737;-66
2022/06/25 12:09:51;;;;;;;0.30;0.30;;;;;;;27.86;61.63;96138.69;5029257;28;101946;-66
2022/06/25 12:12:21;;;;;;;0.30;0.30;;;;;;;27.27;81.56;96141.16;5031149;27;102852;-66
2022/06/25 12:15:38;;;;;;;0.87;0.30;;;;;;;26.66;75.52;96137.56;5030381;27;102989;-66
2022/06/25 12:18:06;;;;;;;0.30;0.30;;;;;;;25.98;72.29;96136.41;5029363;28;101910;-66
2022/06/25 12:20:34;;;;;;;0.37;0.30;;;;;;;26.21;85.80;96134.63;5030795;28;102424;-66